sensor_id;sensor_type;location;lat;lon;timestamp;P1;durP1;ratioP1;P2;durP2;ratioP2
47455;SDS011;33202;48.512;-2.780;2023-12-20T00:01:36;7.05;;;1.75;;
47455;SDS011;33202;48.512;-2.780;2023-12-20T00:04:02;9.73;;;1.58;;
47455;SDS011;33202;48.512;-2.780;2023-12-20T00:06:29;5.10;;;1.50;;
47455;SDS011;33202;48.512;-2.780;2023-12-20T00:08:55;7.45;;;1.67;;
47455;SDS011;33202;48.512;-2.780;2023-12-20T00:11:21;9.73;;;1.90;;
47455;SDS011;33202;48.512;-2.780;2023-12-20T00:13:47;10.20;;;2.53;;
47455;SDS011;33202;48.512;-2.780;2023-12-20T00:16:13;6.75;;;2.00;;
47455;SDS011;33202;48.512;-2.780;2023-12-20T00:18:39;11.75;;;3.67;;
47455;SDS011;33202;48.512;-2.780;2023-12-20T00:21:05;14.43;;;3.50;;
47455;SDS011;33202;48.512;-2.780;2023-12-20T00:23:31;11.73;;;3.55;;
47455;SDS011;33202;48.512;-2.780;2023-12-20T00:25:57;8.55;;;3.38;;
47455;SDS011;33202;48.512;-2.780;2023-12-20T00:28:23;7.45;;;2.70;;
47455;SDS011;33202;48.512;-2.780;2023-12-20T00:30:49;7.22;;;2.00;;
47455;SDS011;33202;48.512;-2.780;2023-12-20T00:33:15;6.95;;;2.10;;
47455;SDS011;33202;48.512;-2.780;2023-12-20T00:35:41;6.05;;;1.70;;
47455;SDS011;33202;48.512;-2.780;2023-12-20T00:38:07;6.32;;;1.67;;
47455;SDS011;33202;48.512;-2.780;2023-12-20T00:40:34;7.75;;;1.88;;
47455;SDS011;33202;48.512;-2.780;2023-12-20T00:43:00;9.07;;;1.48;;
47455;SDS011;33202;48.512;-2.780;2023-12-20T00:45:26;5.97;;;1.40;;
47455;SDS011;33202;48.512;-2.780;2023-12-20T00:47:52;3.95;;;1.38;;
47455;SDS011;33202;48.512;-2.780;2023-12-20T00:50:18;4.82;;;1.27;;
47455;SDS011;33202;48.512;-2.780;2023-12-20T00:52:44;10.27;;;1.70;;
47455;SDS011;33202;48.512;-2.780;2023-12-20T00:55:11;8.25;;;1.52;;
47455;SDS011;33202;48.512;-2.780;2023-12-20T00:57:37;6.15;;;1.80;;
47455;SDS011;33202;48.512;-2.780;2023-12-20T01:00:03;5.65;;;1.63;;
47455;SDS011;33202;48.512;-2.780;2023-12-20T01:02:29;6.85;;;1.60;;
47455;SDS011;33202;48.512;-2.780;2023-12-20T01:04:55;6.30;;;1.23;;
47455;SDS011;33202;48.512;-2.780;2023-12-20T01:07:21;5.38;;;1.30;;
47455;SDS011;33202;48.512;-2.780;2023-12-20T01:09:47;9.00;;;3.03;;
47455;SDS011;33202;48.512;-2.780;2023-12-20T01:12:13;12.68;;;4.05;;
47455;SDS011;33202;48.512;-2.780;2023-12-20T01:14:39;6.85;;;2.95;;
47455;SDS011;33202;48.512;-2.780;2023-12-20T01:17:05;6.05;;;1.75;;
47455;SDS011;33202;48.512;-2.780;2023-12-20T01:19:31;4.28;;;1.40;;
47455;SDS011;33202;48.512;-2.780;2023-12-20T01:21:57;6.57;;;1.50;;
47455;SDS011;33202;48.512;-2.780;2023-12-20T01:24:23;4.97;;;1.25;;
47455;SDS011;33202;48.512;-2.780;2023-12-20T01:26:49;6.32;;;1.20;;
47455;SDS011;33202;48.512;-2.780;2023-12-20T01:29:15;8.25;;;2.55;;
47455;SDS011;33202;48.512;-2.780;2023-12-20T01:31:41;10.88;;;1.52;;
47455;SDS011;33202;48.512;-2.780;2023-12-20T01:34:07;6.70;;;1.33;;
47455;SDS011;33202;48.512;-2.780;2023-12-20T01:36:33;6.88;;;1.23;;
47455;SDS011;33202;48.512;-2.780;2023-12-20T01:38:59;7.20;;;1.92;;
47455;SDS011;33202;48.512;-2.780;2023-12-20T01:41:25;8.05;;;1.80;;
47455;SDS011;33202;48.512;-2.780;2023-12-20T01:43:51;7.75;;;1.70;;
47455;SDS011;33202;48.512;-2.780;2023-12-20T01:46:18;4.40;;;1.08;;
47455;SDS011;33202;48.512;-2.780;2023-12-20T01:48:44;6.78;;;1.20;;
47455;SDS011;33202;48.512;-2.780;2023-12-20T01:51:10;5.90;;;1.15;;
47455;SDS011;33202;48.512;-2.780;2023-12-20T01:53:36;8.10;;;1.10;;
47455;SDS011;33202;48.512;-2.780;2023-12-20T01:56:03;6.20;;;0.83;;
47455;SDS011;33202;48.512;-2.780;2023-12-20T01:58:30;7.80;;;1.40;;
47455;SDS011;33202;48.512;-2.780;2023-12-20T02:00:56;9.10;;;1.08;;
47455;SDS011;33202;48.512;-2.780;2023-12-20T02:03:23;6.17;;;1.00;;
47455;SDS011;33202;48.512;-2.780;2023-12-20T02:05:49;4.70;;;0.80;;
47455;SDS011;33202;48.512;-2.780;2023-12-20T02:08:15;8.83;;;1.90;;
47455;SDS011;33202;48.512;-2.780;2023-12-20T02:10:41;7.13;;;1.40;;
47455;SDS011;33202;48.512;-2.780;2023-12-20T02:13:08;6.03;;;1.13;;
47455;SDS011;33202;48.512;-2.780;2023-12-20T02:15:34;5.10;;;1.25;;
47455;SDS011;33202;48.512;-2.780;2023-12-20T02:18:02;7.80;;;1.63;;
47455;SDS011;33202;48.512;-2.780;2023-12-20T02:20:28;7.43;;;1.73;;
47455;SDS011;33202;48.512;-2.780;2023-12-20T02:22:54;7.95;;;1.40;;
47455;SDS011;33202;48.512;-2.780;2023-12-20T02:25:20;5.45;;;1.08;;
47455;SDS011;33202;48.512;-2.780;2023-12-20T02:27:46;6.45;;;0.93;;
47455;SDS011;33202;48.512;-2.780;2023-12-20T02:30:13;4.90;;;1.20;;
47455;SDS011;33202;48.512;-2.780;2023-12-20T02:32:38;5.78;;;1.10;;
47455;SDS011;33202;48.512;-2.780;2023-12-20T02:35:05;6.40;;;1.15;;
47455;SDS011;33202;48.512;-2.780;2023-12-20T02:37:32;5.40;;;0.90;;
47455;SDS011;33202;48.512;-2.780;2023-12-20T02:39:58;5.45;;;0.50;;
47455;SDS011;33202;48.512;-2.780;2023-12-20T02:42:24;3.75;;;0.82;;
47455;SDS011;33202;48.512;-2.780;2023-12-20T02:44:50;3.97;;;0.70;;
47455;SDS011;33202;48.512;-2.780;2023-12-20T02:47:16;5.13;;;0.70;;
47455;SDS011;33202;48.512;-2.780;2023-12-20T02:49:42;5.70;;;1.00;;
47455;SDS011;33202;48.512;-2.780;2023-12-20T02:52:08;7.03;;;0.90;;
47455;SDS011;33202;48.512;-2.780;2023-12-20T02:54:34;8.20;;;1.00;;
47455;SDS011;33202;48.512;-2.780;2023-12-20T02:57:00;5.70;;;0.93;;
47455;SDS011;33202;48.512;-2.780;2023-12-20T02:59:26;4.85;;;0.98;;
47455;SDS011;33202;48.512;-2.780;2023-12-20T03:01:52;4.00;;;0.75;;
47455;SDS011;33202;48.512;-2.780;2023-12-20T03:04:18;5.72;;;1.10;;
47455;SDS011;33202;48.512;-2.780;2023-12-20T03:06:44;8.60;;;0.88;;
47455;SDS011;33202;48.512;-2.780;2023-12-20T03:09:10;3.38;;;0.90;;
47455;SDS011;33202;48.512;-2.780;2023-12-20T03:11:36;5.47;;;1.48;;
47455;SDS011;33202;48.512;-2.780;2023-12-20T03:14:02;4.60;;;1.25;;
47455;SDS011;33202;48.512;-2.780;2023-12-20T03:16:28;5.90;;;1.38;;
47455;SDS011;33202;48.512;-2.780;2023-12-20T03:18:54;6.03;;;1.63;;
47455;SDS011;33202;48.512;-2.780;2023-12-20T03:21:20;4.15;;;0.90;;
47455;SDS011;33202;48.512;-2.780;2023-12-20T03:23:46;7.30;;;1.00;;
47455;SDS011;33202;48.512;-2.780;2023-12-20T03:26:12;4.60;;;0.90;;
47455;SDS011;33202;48.512;-2.780;2023-12-20T03:28:38;6.07;;;0.88;;
47455;SDS011;33202;48.512;-2.780;2023-12-20T03:31:04;6.18;;;1.00;;
47455;SDS011;33202;48.512;-2.780;2023-12-20T03:33:30;5.53;;;1.00;;
47455;SDS011;33202;48.512;-2.780;2023-12-20T03:35:56;6.18;;;0.80;;
47455;SDS011;33202;48.512;-2.780;2023-12-20T03:38:22;6.43;;;1.42;;
47455;SDS011;33202;48.512;-2.780;2023-12-20T03:40:49;4.00;;;0.85;;
47455;SDS011;33202;48.512;-2.780;2023-12-20T03:43:15;12.25;;;1.52;;
47455;SDS011;33202;48.512;-2.780;2023-12-20T03:45:41;5.88;;;1.05;;
47455;SDS011;33202;48.512;-2.780;2023-12-20T03:48:07;3.45;;;0.95;;
47455;SDS011;33202;48.512;-2.780;2023-12-20T03:50:33;5.93;;;1.00;;
47455;SDS011;33202;48.512;-2.780;2023-12-20T03:53:00;5.82;;;1.20;;
47455;SDS011;33202;48.512;-2.780;2023-12-20T03:55:26;9.45;;;1.75;;
47455;SDS011;33202;48.512;-2.780;2023-12-20T03:57:52;6.18;;;1.15;;
47455;SDS011;33202;48.512;-2.780;2023-12-20T04:00:18;4.43;;;1.00;;
47455;SDS011;33202;48.512;-2.780;2023-12-20T04:02:44;7.72;;;0.88;;
47455;SDS011;33202;48.512;-2.780;2023-12-20T04:05:10;6.53;;;1.70;;
47455;SDS011;33202;48.512;-2.780;2023-12-20T04:07:36;6.78;;;1.13;;
47455;SDS011;33202;48.512;-2.780;2023-12-20T04:10:02;5.22;;;0.82;;
47455;SDS011;33202;48.512;-2.780;2023-12-20T04:12:31;7.75;;;1.33;;
47455;SDS011;33202;48.512;-2.780;2023-12-20T04:14:57;6.43;;;0.98;;
47455;SDS011;33202;48.512;-2.780;2023-12-20T04:17:23;5.90;;;0.93;;
47455;SDS011;33202;48.512;-2.780;2023-12-20T04:19:49;4.57;;;0.70;;
47455;SDS011;33202;48.512;-2.780;2023-12-20T04:22:16;5.93;;;1.23;;
47455;SDS011;33202;48.512;-2.780;2023-12-20T04:24:42;4.35;;;0.88;;
47455;SDS011;33202;48.512;-2.780;2023-12-20T04:27:08;5.00;;;1.10;;
47455;SDS011;33202;48.512;-2.780;2023-12-20T04:29:34;5.60;;;1.17;;
47455;SDS011;33202;48.512;-2.780;2023-12-20T04:32:00;7.38;;;1.13;;
47455;SDS011;33202;48.512;-2.780;2023-12-20T04:34:26;6.13;;;1.10;;
47455;SDS011;33202;48.512;-2.780;2023-12-20T04:36:53;7.47;;;1.20;;
47455;SDS011;33202;48.512;-2.780;2023-12-20T04:39:19;5.38;;;1.20;;
47455;SDS011;33202;48.512;-2.780;2023-12-20T04:41:45;8.95;;;2.28;;
47455;SDS011;33202;48.512;-2.780;2023-12-20T04:44:12;9.60;;;1.65;;
47455;SDS011;33202;48.512;-2.780;2023-12-20T04:46:38;7.38;;;1.60;;
47455;SDS011;33202;48.512;-2.780;2023-12-20T04:49:04;6.50;;;1.25;;
47455;SDS011;33202;48.512;-2.780;2023-12-20T04:51:32;5.32;;;1.10;;
47455;SDS011;33202;48.512;-2.780;2023-12-20T04:53:59;3.70;;;1.13;;
47455;SDS011;33202;48.512;-2.780;2023-12-20T04:56:25;4.88;;;1.10;;
47455;SDS011;33202;48.512;-2.780;2023-12-20T04:58:51;10.88;;;1.63;;
47455;SDS011;33202;48.512;-2.780;2023-12-20T05:01:17;7.88;;;1.70;;
47455;SDS011;33202;48.512;-2.780;2023-12-20T05:03:43;8.45;;;1.20;;
47455;SDS011;33202;48.512;-2.780;2023-12-20T05:06:09;7.65;;;1.50;;
47455;SDS011;33202;48.512;-2.780;2023-12-20T05:08:35;5.82;;;1.15;;
47455;SDS011;33202;48.512;-2.780;2023-12-20T05:11:01;7.10;;;1.98;;
47455;SDS011;33202;48.512;-2.780;2023-12-20T05:13:27;10.98;;;2.33;;
47455;SDS011;33202;48.512;-2.780;2023-12-20T05:15:53;9.98;;;2.45;;
47455;SDS011;33202;48.512;-2.780;2023-12-20T05:18:22;7.75;;;1.75;;
47455;SDS011;33202;48.512;-2.780;2023-12-20T05:20:49;6.18;;;1.42;;
47455;SDS011;33202;48.512;-2.780;2023-12-20T05:23:15;5.65;;;1.45;;
47455;SDS011;33202;48.512;-2.780;2023-12-20T05:25:42;8.77;;;1.70;;
47455;SDS011;33202;48.512;-2.780;2023-12-20T05:28:08;14.43;;;2.38;;
47455;SDS011;33202;48.512;-2.780;2023-12-20T05:30:34;12.07;;;2.28;;
47455;SDS011;33202;48.512;-2.780;2023-12-20T05:33:00;10.05;;;1.63;;
47455;SDS011;33202;48.512;-2.780;2023-12-20T05:35:26;13.80;;;2.20;;
47455;SDS011;33202;48.512;-2.780;2023-12-20T05:37:52;9.55;;;1.52;;
47455;SDS011;33202;48.512;-2.780;2023-12-20T05:40:18;6.28;;;1.30;;
47455;SDS011;33202;48.512;-2.780;2023-12-20T05:42:44;6.78;;;1.30;;
47455;SDS011;33202;48.512;-2.780;2023-12-20T05:45:10;10.85;;;1.80;;
47455;SDS011;33202;48.512;-2.780;2023-12-20T05:47:36;10.82;;;1.90;;
47455;SDS011;33202;48.512;-2.780;2023-12-20T05:50:02;6.80;;;1.20;;
47455;SDS011;33202;48.512;-2.780;2023-12-20T05:52:29;7.28;;;1.60;;
47455;SDS011;33202;48.512;-2.780;2023-12-20T05:54:55;7.93;;;1.75;;
47455;SDS011;33202;48.512;-2.780;2023-12-20T05:57:22;12.10;;;3.72;;
47455;SDS011;33202;48.512;-2.780;2023-12-20T05:59:48;10.98;;;3.22;;
47455;SDS011;33202;48.512;-2.780;2023-12-20T06:02:14;14.20;;;4.53;;
47455;SDS011;33202;48.512;-2.780;2023-12-20T06:04:44;10.05;;;3.65;;
47455;SDS011;33202;48.512;-2.780;2023-12-20T06:07:13;10.50;;;3.72;;
47455;SDS011;33202;48.512;-2.780;2023-12-20T06:09:39;14.05;;;3.30;;
47455;SDS011;33202;48.512;-2.780;2023-12-20T06:12:05;10.20;;;3.28;;
47455;SDS011;33202;48.512;-2.780;2023-12-20T06:14:31;11.95;;;2.85;;
47455;SDS011;33202;48.512;-2.780;2023-12-20T06:16:57;8.65;;;2.78;;
47455;SDS011;33202;48.512;-2.780;2023-12-20T06:19:23;5.57;;;2.30;;
47455;SDS011;33202;48.512;-2.780;2023-12-20T06:21:49;10.25;;;3.35;;
47455;SDS011;33202;48.512;-2.780;2023-12-20T06:24:15;10.60;;;2.78;;
47455;SDS011;33202;48.512;-2.780;2023-12-20T06:26:43;8.95;;;2.35;;
47455;SDS011;33202;48.512;-2.780;2023-12-20T06:29:09;6.80;;;2.28;;
47455;SDS011;33202;48.512;-2.780;2023-12-20T06:31:35;9.30;;;2.83;;
47455;SDS011;33202;48.512;-2.780;2023-12-20T06:34:01;9.38;;;2.40;;
47455;SDS011;33202;48.512;-2.780;2023-12-20T06:36:28;10.15;;;2.38;;
47455;SDS011;33202;48.512;-2.780;2023-12-20T06:38:57;11.40;;;2.40;;
47455;SDS011;33202;48.512;-2.780;2023-12-20T06:41:23;10.35;;;2.10;;
47455;SDS011;33202;48.512;-2.780;2023-12-20T06:43:49;6.00;;;1.60;;
47455;SDS011;33202;48.512;-2.780;2023-12-20T06:46:16;7.90;;;1.88;;
47455;SDS011;33202;48.512;-2.780;2023-12-20T06:48:43;8.82;;;1.85;;
47455;SDS011;33202;48.512;-2.780;2023-12-20T06:51:14;10.90;;;2.13;;
47455;SDS011;33202;48.512;-2.780;2023-12-20T06:53:40;6.32;;;1.50;;
47455;SDS011;33202;48.512;-2.780;2023-12-20T06:56:06;6.45;;;2.50;;
47455;SDS011;33202;48.512;-2.780;2023-12-20T06:58:32;7.78;;;2.70;;
47455;SDS011;33202;48.512;-2.780;2023-12-20T07:00:58;8.55;;;1.95;;
47455;SDS011;33202;48.512;-2.780;2023-12-20T07:03:24;7.10;;;2.00;;
47455;SDS011;33202;48.512;-2.780;2023-12-20T07:05:50;7.10;;;1.73;;
47455;SDS011;33202;48.512;-2.780;2023-12-20T07:08:17;10.55;;;2.05;;
47455;SDS011;33202;48.512;-2.780;2023-12-20T07:10:43;8.43;;;1.98;;
47455;SDS011;33202;48.512;-2.780;2023-12-20T07:13:09;13.00;;;2.35;;
47455;SDS011;33202;48.512;-2.780;2023-12-20T07:15:35;12.25;;;2.30;;
47455;SDS011;33202;48.512;-2.780;2023-12-20T07:18:01;11.90;;;2.25;;
47455;SDS011;33202;48.512;-2.780;2023-12-20T07:20:27;7.93;;;1.40;;
47455;SDS011;33202;48.512;-2.780;2023-12-20T07:22:53;8.43;;;1.88;;
47455;SDS011;33202;48.512;-2.780;2023-12-20T07:25:19;9.40;;;1.90;;
47455;SDS011;33202;48.512;-2.780;2023-12-20T07:27:45;11.13;;;1.77;;
47455;SDS011;33202;48.512;-2.780;2023-12-20T07:30:11;16.73;;;2.08;;
47455;SDS011;33202;48.512;-2.780;2023-12-20T07:32:37;10.10;;;1.95;;
47455;SDS011;33202;48.512;-2.780;2023-12-20T07:35:04;7.05;;;2.10;;
47455;SDS011;33202;48.512;-2.780;2023-12-20T07:37:30;15.60;;;2.50;;
47455;SDS011;33202;48.512;-2.780;2023-12-20T07:39:56;11.88;;;1.88;;
47455;SDS011;33202;48.512;-2.780;2023-12-20T07:42:22;10.90;;;2.40;;
47455;SDS011;33202;48.512;-2.780;2023-12-20T07:44:48;10.65;;;2.65;;
47455;SDS011;33202;48.512;-2.780;2023-12-20T07:47:14;9.52;;;2.10;;
47455;SDS011;33202;48.512;-2.780;2023-12-20T07:49:44;9.82;;;2.20;;
47455;SDS011;33202;48.512;-2.780;2023-12-20T07:52:10;6.82;;;2.00;;
47455;SDS011;33202;48.512;-2.780;2023-12-20T07:54:36;9.88;;;2.25;;
47455;SDS011;33202;48.512;-2.780;2023-12-20T07:57:02;11.60;;;2.35;;
47455;SDS011;33202;48.512;-2.780;2023-12-20T07:59:28;10.48;;;1.88;;
47455;SDS011;33202;48.512;-2.780;2023-12-20T08:01:54;10.30;;;2.75;;
47455;SDS011;33202;48.512;-2.780;2023-12-20T08:04:20;7.13;;;2.28;;
47455;SDS011;33202;48.512;-2.780;2023-12-20T08:06:47;10.73;;;2.22;;
47455;SDS011;33202;48.512;-2.780;2023-12-20T08:09:13;13.50;;;2.60;;
47455;SDS011;33202;48.512;-2.780;2023-12-20T08:11:39;9.65;;;1.80;;
47455;SDS011;33202;48.512;-2.780;2023-12-20T08:14:05;11.38;;;2.65;;
47455;SDS011;33202;48.512;-2.780;2023-12-20T08:16:31;7.63;;;1.90;;
47455;SDS011;33202;48.512;-2.780;2023-12-20T08:18:57;8.27;;;2.08;;
47455;SDS011;33202;48.512;-2.780;2023-12-20T08:21:23;12.63;;;2.53;;
47455;SDS011;33202;48.512;-2.780;2023-12-20T08:23:49;8.23;;;2.55;;
47455;SDS011;33202;48.512;-2.780;2023-12-20T08:26:18;9.30;;;2.67;;
47455;SDS011;33202;48.512;-2.780;2023-12-20T08:28:45;10.18;;;1.92;;
47455;SDS011;33202;48.512;-2.780;2023-12-20T08:31:17;11.57;;;2.63;;
47455;SDS011;33202;48.512;-2.780;2023-12-20T08:33:46;7.43;;;1.95;;
47455;SDS011;33202;48.512;-2.780;2023-12-20T08:36:12;9.13;;;2.30;;
47455;SDS011;33202;48.512;-2.780;2023-12-20T08:38:38;9.48;;;2.22;;
47455;SDS011;33202;48.512;-2.780;2023-12-20T08:41:04;10.52;;;2.35;;
47455;SDS011;33202;48.512;-2.780;2023-12-20T08:43:31;9.98;;;2.00;;
47455;SDS011;33202;48.512;-2.780;2023-12-20T08:45:57;11.02;;;2.67;;
47455;SDS011;33202;48.512;-2.780;2023-12-20T08:48:23;10.27;;;2.92;;
47455;SDS011;33202;48.512;-2.780;2023-12-20T08:50:49;10.63;;;2.30;;
47455;SDS011;33202;48.512;-2.780;2023-12-20T08:53:17;12.20;;;3.03;;
47455;SDS011;33202;48.512;-2.780;2023-12-20T08:55:43;8.48;;;2.17;;
47455;SDS011;33202;48.512;-2.780;2023-12-20T08:58:09;12.82;;;2.67;;
47455;SDS011;33202;48.512;-2.780;2023-12-20T09:00:35;15.23;;;2.60;;
47455;SDS011;33202;48.512;-2.780;2023-12-20T09:03:01;9.55;;;2.40;;
47455;SDS011;33202;48.512;-2.780;2023-12-20T09:05:27;10.43;;;2.15;;
47455;SDS011;33202;48.512;-2.780;2023-12-20T09:07:54;8.68;;;2.40;;
47455;SDS011;33202;48.512;-2.780;2023-12-20T09:10:20;11.55;;;2.45;;
47455;SDS011;33202;48.512;-2.780;2023-12-20T09:12:50;9.73;;;2.15;;
47455;SDS011;33202;48.512;-2.780;2023-12-20T09:15:16;10.88;;;2.75;;
47455;SDS011;33202;48.512;-2.780;2023-12-20T09:17:42;11.55;;;3.15;;
47455;SDS011;33202;48.512;-2.780;2023-12-20T09:20:09;15.20;;;3.03;;
47455;SDS011;33202;48.512;-2.780;2023-12-20T09:22:35;12.27;;;2.50;;
47455;SDS011;33202;48.512;-2.780;2023-12-20T09:25:03;13.68;;;2.88;;
47455;SDS011;33202;48.512;-2.780;2023-12-20T09:27:29;12.23;;;2.42;;
47455;SDS011;33202;48.512;-2.780;2023-12-20T09:29:55;11.75;;;2.03;;
47455;SDS011;33202;48.512;-2.780;2023-12-20T09:32:21;13.02;;;2.30;;
47455;SDS011;33202;48.512;-2.780;2023-12-20T09:34:47;12.60;;;2.92;;
47455;SDS011;33202;48.512;-2.780;2023-12-20T09:37:13;10.30;;;2.72;;
47455;SDS011;33202;48.512;-2.780;2023-12-20T09:39:39;18.75;;;3.22;;
47455;SDS011;33202;48.512;-2.780;2023-12-20T09:42:06;12.57;;;2.60;;
47455;SDS011;33202;48.512;-2.780;2023-12-20T09:44:32;16.30;;;3.30;;
47455;SDS011;33202;48.512;-2.780;2023-12-20T09:47:00;15.82;;;2.33;;
47455;SDS011;33202;48.512;-2.780;2023-12-20T09:49:27;14.63;;;2.50;;
47455;SDS011;33202;48.512;-2.780;2023-12-20T09:51:53;11.75;;;2.35;;
47455;SDS011;33202;48.512;-2.780;2023-12-20T09:54:20;15.77;;;2.20;;
47455;SDS011;33202;48.512;-2.780;2023-12-20T09:56:46;11.32;;;2.50;;
47455;SDS011;33202;48.512;-2.780;2023-12-20T09:59:13;17.77;;;2.97;;
47455;SDS011;33202;48.512;-2.780;2023-12-20T10:01:40;14.23;;;2.63;;
47455;SDS011;33202;48.512;-2.780;2023-12-20T10:04:07;10.25;;;2.30;;
47455;SDS011;33202;48.512;-2.780;2023-12-20T10:06:37;14.48;;;2.83;;
47455;SDS011;33202;48.512;-2.780;2023-12-20T10:09:03;13.15;;;2.47;;
47455;SDS011;33202;48.512;-2.780;2023-12-20T10:11:29;14.27;;;3.13;;
47455;SDS011;33202;48.512;-2.780;2023-12-20T10:14:01;14.73;;;2.85;;
47455;SDS011;33202;48.512;-2.780;2023-12-20T10:16:27;14.77;;;2.63;;
47455;SDS011;33202;48.512;-2.780;2023-12-20T10:18:54;13.80;;;3.07;;
47455;SDS011;33202;48.512;-2.780;2023-12-20T10:21:20;13.90;;;2.58;;
47455;SDS011;33202;48.512;-2.780;2023-12-20T10:23:47;14.65;;;2.70;;
47455;SDS011;33202;48.512;-2.780;2023-12-20T10:26:27;16.25;;;3.08;;
47455;SDS011;33202;48.512;-2.780;2023-12-20T10:28:54;13.48;;;2.58;;
47455;SDS011;33202;48.512;-2.780;2023-12-20T10:33:53;13.00;;;2.47;;
47455;SDS011;33202;48.512;-2.780;2023-12-20T10:36:19;13.85;;;2.42;;
47455;SDS011;33202;48.512;-2.780;2023-12-20T10:38:45;14.82;;;2.22;;
47455;SDS011;33202;48.512;-2.780;2023-12-20T10:41:12;15.85;;;3.38;;
47455;SDS011;33202;48.512;-2.780;2023-12-20T10:43:42;9.40;;;2.47;;
47455;SDS011;33202;48.512;-2.780;2023-12-20T10:46:08;13.93;;;2.45;;
47455;SDS011;33202;48.512;-2.780;2023-12-20T10:48:34;10.90;;;2.20;;
47455;SDS011;33202;48.512;-2.780;2023-12-20T10:51:00;14.80;;;2.38;;
47455;SDS011;33202;48.512;-2.780;2023-12-20T10:53:27;12.18;;;2.35;;
47455;SDS011;33202;48.512;-2.780;2023-12-20T10:55:55;15.10;;;2.60;;
47455;SDS011;33202;48.512;-2.780;2023-12-20T10:58:24;15.75;;;2.55;;
47455;SDS011;33202;48.512;-2.780;2023-12-20T11:00:50;16.90;;;2.78;;
47455;SDS011;33202;48.512;-2.780;2023-12-20T11:03:18;15.45;;;5.43;;
47455;SDS011;33202;48.512;-2.780;2023-12-20T11:08:26;11.77;;;3.42;;
47455;SDS011;33202;48.512;-2.780;2023-12-20T11:11:07;16.23;;;4.85;;
47455;SDS011;33202;48.512;-2.780;2023-12-20T11:13:37;14.95;;;2.83;;
47455;SDS011;33202;48.512;-2.780;2023-12-20T11:16:05;15.77;;;2.92;;
47455;SDS011;33202;48.512;-2.780;2023-12-20T11:18:32;11.63;;;2.30;;
47455;SDS011;33202;48.512;-2.780;2023-12-20T11:21:02;12.68;;;2.58;;
47455;SDS011;33202;48.512;-2.780;2023-12-20T11:23:30;12.73;;;2.22;;
47455;SDS011;33202;48.512;-2.780;2023-12-20T11:25:58;12.05;;;2.10;;
47455;SDS011;33202;48.512;-2.780;2023-12-20T11:28:24;10.00;;;2.30;;
47455;SDS011;33202;48.512;-2.780;2023-12-20T11:30:51;10.00;;;2.47;;
47455;SDS011;33202;48.512;-2.780;2023-12-20T11:33:21;9.25;;;1.95;;
47455;SDS011;33202;48.512;-2.780;2023-12-20T11:35:47;14.68;;;2.30;;
47455;SDS011;33202;48.512;-2.780;2023-12-20T11:38:13;14.32;;;2.88;;
47455;SDS011;33202;48.512;-2.780;2023-12-20T11:40:41;11.93;;;2.30;;
47455;SDS011;33202;48.512;-2.780;2023-12-20T11:43:07;15.73;;;1.90;;
47455;SDS011;33202;48.512;-2.780;2023-12-20T11:45:33;15.85;;;2.40;;
47455;SDS011;33202;48.512;-2.780;2023-12-20T11:48:02;16.60;;;2.58;;
47455;SDS011;33202;48.512;-2.780;2023-12-20T11:50:28;6.97;;;1.80;;
47455;SDS011;33202;48.512;-2.780;2023-12-20T11:52:55;12.10;;;2.30;;
47455;SDS011;33202;48.512;-2.780;2023-12-20T11:55:22;9.15;;;1.88;;
47455;SDS011;33202;48.512;-2.780;2023-12-20T11:57:49;12.30;;;2.13;;
47455;SDS011;33202;48.512;-2.780;2023-12-20T12:00:15;13.75;;;2.58;;
47455;SDS011;33202;48.512;-2.780;2023-12-20T12:02:41;10.30;;;2.22;;
47455;SDS011;33202;48.512;-2.780;2023-12-20T12:05:08;11.55;;;2.10;;
47455;SDS011;33202;48.512;-2.780;2023-12-20T12:07:34;10.25;;;1.90;;
47455;SDS011;33202;48.512;-2.780;2023-12-20T12:10:00;19.27;;;2.25;;
47455;SDS011;33202;48.512;-2.780;2023-12-20T12:12:28;10.35;;;2.22;;
47455;SDS011;33202;48.512;-2.780;2023-12-20T12:14:55;19.37;;;2.73;;
47455;SDS011;33202;48.512;-2.780;2023-12-20T12:17:22;10.95;;;2.08;;
47455;SDS011;33202;48.512;-2.780;2023-12-20T12:19:48;13.77;;;2.63;;
47455;SDS011;33202;48.512;-2.780;2023-12-20T12:22:15;12.43;;;2.53;;
47455;SDS011;33202;48.512;-2.780;2023-12-20T12:24:45;7.30;;;1.70;;
47455;SDS011;33202;48.512;-2.780;2023-12-20T12:27:15;12.57;;;2.67;;
47455;SDS011;33202;48.512;-2.780;2023-12-20T12:29:42;13.13;;;1.92;;
47455;SDS011;33202;48.512;-2.780;2023-12-20T12:32:25;8.35;;;1.75;;
47455;SDS011;33202;48.512;-2.780;2023-12-20T12:34:51;9.07;;;1.70;;
47455;SDS011;33202;48.512;-2.780;2023-12-20T12:37:21;12.85;;;2.70;;
47455;SDS011;33202;48.512;-2.780;2023-12-20T12:39:49;8.45;;;1.77;;
47455;SDS011;33202;48.512;-2.780;2023-12-20T12:42:15;10.15;;;2.05;;
47455;SDS011;33202;48.512;-2.780;2023-12-20T12:44:41;11.07;;;1.60;;
47455;SDS011;33202;48.512;-2.780;2023-12-20T12:47:07;8.32;;;1.73;;
47455;SDS011;33202;48.512;-2.780;2023-12-20T12:49:33;13.95;;;1.70;;
47455;SDS011;33202;48.512;-2.780;2023-12-20T12:51:59;9.43;;;1.60;;
47455;SDS011;33202;48.512;-2.780;2023-12-20T12:54:25;9.57;;;2.03;;
47455;SDS011;33202;48.512;-2.780;2023-12-20T12:56:51;6.25;;;1.17;;
47455;SDS011;33202;48.512;-2.780;2023-12-20T12:59:18;6.63;;;1.55;;
47455;SDS011;33202;48.512;-2.780;2023-12-20T13:01:44;5.70;;;1.20;;
47455;SDS011;33202;48.512;-2.780;2023-12-20T13:04:10;6.55;;;1.25;;
47455;SDS011;33202;48.512;-2.780;2023-12-20T13:06:37;7.03;;;1.27;;
47455;SDS011;33202;48.512;-2.780;2023-12-20T13:09:03;7.22;;;1.10;;
47455;SDS011;33202;48.512;-2.780;2023-12-20T13:11:34;7.80;;;1.23;;
47455;SDS011;33202;48.512;-2.780;2023-12-20T13:14:00;5.38;;;0.90;;
47455;SDS011;33202;48.512;-2.780;2023-12-20T13:16:26;7.00;;;1.25;;
47455;SDS011;33202;48.512;-2.780;2023-12-20T13:18:52;6.40;;;1.33;;
47455;SDS011;33202;48.512;-2.780;2023-12-20T13:21:18;18.65;;;2.25;;
47455;SDS011;33202;48.512;-2.780;2023-12-20T13:23:44;8.15;;;1.33;;
47455;SDS011;33202;48.512;-2.780;2023-12-20T13:26:10;5.70;;;0.85;;
47455;SDS011;33202;48.512;-2.780;2023-12-20T13:28:36;5.85;;;1.10;;
47455;SDS011;33202;48.512;-2.780;2023-12-20T13:31:02;6.53;;;1.20;;
47455;SDS011;33202;48.512;-2.780;2023-12-20T13:33:28;6.18;;;0.88;;
47455;SDS011;33202;48.512;-2.780;2023-12-20T13:35:54;5.53;;;1.08;;
47455;SDS011;33202;48.512;-2.780;2023-12-20T13:38:21;6.20;;;1.27;;
47455;SDS011;33202;48.512;-2.780;2023-12-20T13:40:47;8.15;;;1.33;;
47455;SDS011;33202;48.512;-2.780;2023-12-20T13:43:13;9.70;;;1.55;;
47455;SDS011;33202;48.512;-2.780;2023-12-20T13:45:41;8.52;;;1.40;;
47455;SDS011;33202;48.512;-2.780;2023-12-20T13:48:07;4.07;;;1.30;;
47455;SDS011;33202;48.512;-2.780;2023-12-20T13:50:33;9.43;;;1.52;;
47455;SDS011;33202;48.512;-2.780;2023-12-20T13:52:59;6.57;;;1.33;;
47455;SDS011;33202;48.512;-2.780;2023-12-20T13:55:26;6.50;;;1.27;;
47455;SDS011;33202;48.512;-2.780;2023-12-20T13:57:52;8.15;;;1.33;;
47455;SDS011;33202;48.512;-2.780;2023-12-20T14:00:18;8.77;;;1.17;;
47455;SDS011;33202;48.512;-2.780;2023-12-20T14:02:45;8.10;;;1.20;;
47455;SDS011;33202;48.512;-2.780;2023-12-20T14:05:11;6.05;;;0.95;;
47455;SDS011;33202;48.512;-2.780;2023-12-20T14:07:39;7.00;;;0.98;;
47455;SDS011;33202;48.512;-2.780;2023-12-20T14:10:05;6.05;;;1.30;;
47455;SDS011;33202;48.512;-2.780;2023-12-20T14:12:31;8.35;;;1.55;;
47455;SDS011;33202;48.512;-2.780;2023-12-20T14:15:01;3.42;;;1.00;;
47455;SDS011;33202;48.512;-2.780;2023-12-20T14:17:27;7.68;;;1.67;;
47455;SDS011;33202;48.512;-2.780;2023-12-20T14:19:53;6.57;;;1.13;;
47455;SDS011;33202;48.512;-2.780;2023-12-20T14:22:19;7.30;;;1.17;;
47455;SDS011;33202;48.512;-2.780;2023-12-20T14:24:45;9.02;;;1.08;;
47455;SDS011;33202;48.512;-2.780;2023-12-20T14:27:11;6.15;;;1.05;;
47455;SDS011;33202;48.512;-2.780;2023-12-20T14:29:38;6.20;;;1.10;;